sensor_id;sensor_type;location;lat;lon;timestamp;P1;durP1;ratioP1;P2;durP2;ratioP2
65073;SDS011;52218;51.224;-2.328;2022-12-10T00:01:34;14.02;;;9.48;;
65073;SDS011;52218;51.224;-2.328;2022-12-10T00:05:16;13.23;;;9.15;;
65073;SDS011;52218;51.224;-2.328;2022-12-10T00:08:59;13.88;;;9.30;;
65073;SDS011;52218;51.224;-2.328;2022-12-10T00:12:42;15.77;;;9.80;;
65073;SDS011;52218;51.224;-2.328;2022-12-10T00:16:25;16.73;;;9.70;;
65073;SDS011;52218;51.224;-2.328;2022-12-10T00:20:09;16.65;;;9.43;;
65073;SDS011;52218;51.224;-2.328;2022-12-10T00:23:51;14.75;;;9.30;;
65073;SDS011;52218;51.224;-2.328;2022-12-10T00:27:34;13.68;;;9.18;;
65073;SDS011;52218;51.224;-2.328;2022-12-10T00:31:21;15.05;;;8.43;;
65073;SDS011;52218;51.224;-2.328;2022-12-10T00:35:08;15.05;;;8.45;;
65073;SDS011;52218;51.224;-2.328;2022-12-10T00:38:50;13.32;;;8.70;;
65073;SDS011;52218;51.224;-2.328;2022-12-10T00:42:32;12.55;;;8.07;;
65073;SDS011;52218;51.224;-2.328;2022-12-10T00:46:15;11.80;;;7.65;;
65073;SDS011;52218;51.224;-2.328;2022-12-10T00:49:57;10.75;;;6.93;;
65073;SDS011;52218;51.224;-2.328;2022-12-10T00:53:40;11.93;;;7.68;;
65073;SDS011;52218;51.224;-2.328;2022-12-10T00:57:23;12.50;;;8.80;;
65073;SDS011;52218;51.224;-2.328;2022-12-10T01:01:10;13.10;;;8.45;;
65073;SDS011;52218;51.224;-2.328;2022-12-10T01:04:55;13.98;;;7.93;;
65073;SDS011;52218;51.224;-2.328;2022-12-10T01:08:37;12.25;;;7.57;;
65073;SDS011;52218;51.224;-2.328;2022-12-10T01:12:19;12.30;;;7.43;;
65073;SDS011;52218;51.224;-2.328;2022-12-10T01:16:02;9.75;;;7.25;;
65073;SDS011;52218;51.224;-2.328;2022-12-10T01:19:45;10.52;;;7.22;;
65073;SDS011;52218;51.224;-2.328;2022-12-10T01:23:27;11.30;;;7.50;;
65073;SDS011;52218;51.224;-2.328;2022-12-10T01:27:09;10.35;;;8.18;;
65073;SDS011;52218;51.224;-2.328;2022-12-10T01:30:54;11.57;;;8.27;;
65073;SDS011;52218;51.224;-2.328;2022-12-10T01:34:36;10.88;;;7.82;;
65073;SDS011;52218;51.224;-2.328;2022-12-10T01:38:18;12.85;;;7.43;;
65073;SDS011;52218;51.224;-2.328;2022-12-10T01:42:00;11.27;;;7.65;;
65073;SDS011;52218;51.224;-2.328;2022-12-10T01:45:42;11.82;;;7.90;;
65073;SDS011;52218;51.224;-2.328;2022-12-10T01:49:26;12.35;;;7.82;;
65073;SDS011;52218;51.224;-2.328;2022-12-10T01:53:14;14.93;;;7.97;;
65073;SDS011;52218;51.224;-2.328;2022-12-10T01:56:59;10.27;;;7.10;;
65073;SDS011;52218;51.224;-2.328;2022-12-10T02:00:56;12.90;;;8.15;;
65073;SDS011;52218;51.224;-2.328;2022-12-10T02:05:01;14.10;;;8.55;;
65073;SDS011;52218;51.224;-2.328;2022-12-10T02:09:04;13.40;;;8.02;;
65073;SDS011;52218;51.224;-2.328;2022-12-10T02:13:06;12.10;;;7.35;;
65073;SDS011;52218;51.224;-2.328;2022-12-10T02:17:01;12.57;;;7.63;;
65073;SDS011;52218;51.224;-2.328;2022-12-10T02:21:00;11.23;;;7.53;;
65073;SDS011;52218;51.224;-2.328;2022-12-10T02:24:47;10.35;;;7.47;;
65073;SDS011;52218;51.224;-2.328;2022-12-10T02:28:36;12.52;;;7.38;;
65073;SDS011;52218;51.224;-2.328;2022-12-10T02:32:33;11.38;;;7.72;;
65073;SDS011;52218;51.224;-2.328;2022-12-10T02:36:18;11.95;;;7.63;;
65073;SDS011;52218;51.224;-2.328;2022-12-10T02:40:05;10.65;;;7.38;;
65073;SDS011;52218;51.224;-2.328;2022-12-10T02:43:51;10.55;;;6.97;;
65073;SDS011;52218;51.224;-2.328;2022-12-10T02:47:35;10.70;;;6.90;;
65073;SDS011;52218;51.224;-2.328;2022-12-10T02:51:20;13.13;;;7.38;;
65073;SDS011;52218;51.224;-2.328;2022-12-10T02:55:02;10.27;;;7.32;;
65073;SDS011;52218;51.224;-2.328;2022-12-10T03:06:47;10.32;;;7.10;;
65073;SDS011;52218;51.224;-2.328;2022-12-10T03:10:42;9.60;;;6.90;;
65073;SDS011;52218;51.224;-2.328;2022-12-10T03:14:40;9.63;;;6.63;;
65073;SDS011;52218;51.224;-2.328;2022-12-10T03:18:24;10.98;;;6.55;;
65073;SDS011;52218;51.224;-2.328;2022-12-10T03:22:08;10.45;;;6.75;;
65073;SDS011;52218;51.224;-2.328;2022-12-10T03:25:53;10.93;;;6.78;;
65073;SDS011;52218;51.224;-2.328;2022-12-10T03:29:57;11.50;;;6.90;;
65073;SDS011;52218;51.224;-2.328;2022-12-10T03:33:39;8.18;;;6.50;;
65073;SDS011;52218;51.224;-2.328;2022-12-10T03:37:22;10.75;;;5.97;;
65073;SDS011;52218;51.224;-2.328;2022-12-10T03:41:05;10.30;;;5.43;;
65073;SDS011;52218;51.224;-2.328;2022-12-10T03:44:49;7.60;;;5.28;;
65073;SDS011;52218;51.224;-2.328;2022-12-10T03:48:32;10.18;;;5.63;;
65073;SDS011;52218;51.224;-2.328;2022-12-10T03:52:15;8.35;;;5.40;;
65073;SDS011;52218;51.224;-2.328;2022-12-10T03:55:57;9.65;;;6.03;;
65073;SDS011;52218;51.224;-2.328;2022-12-10T03:59:39;8.25;;;5.65;;
65073;SDS011;52218;51.224;-2.328;2022-12-10T04:03:21;8.40;;;5.53;;
65073;SDS011;52218;51.224;-2.328;2022-12-10T04:07:03;7.25;;;5.00;;
65073;SDS011;52218;51.224;-2.328;2022-12-10T04:10:45;7.75;;;4.88;;
65073;SDS011;52218;51.224;-2.328;2022-12-10T04:14:27;8.98;;;5.10;;
65073;SDS011;52218;51.224;-2.328;2022-12-10T04:18:28;8.52;;;4.80;;
65073;SDS011;52218;51.224;-2.328;2022-12-10T04:22:10;7.43;;;4.70;;
65073;SDS011;52218;51.224;-2.328;2022-12-10T04:26:10;7.63;;;4.70;;
65073;SDS011;52218;51.224;-2.328;2022-12-10T04:30:11;6.10;;;4.38;;
65073;SDS011;52218;51.224;-2.328;2022-12-10T04:33:53;7.00;;;4.85;;
65073;SDS011;52218;51.224;-2.328;2022-12-10T04:37:35;7.30;;;4.40;;
65073;SDS011;52218;51.224;-2.328;2022-12-10T04:41:18;6.65;;;4.40;;
65073;SDS011;52218;51.224;-2.328;2022-12-10T04:45:00;8.38;;;5.35;;
65073;SDS011;52218;51.224;-2.328;2022-12-10T04:48:42;7.05;;;4.70;;
65073;SDS011;52218;51.224;-2.328;2022-12-10T04:52:24;6.38;;;4.22;;
65073;SDS011;52218;51.224;-2.328;2022-12-10T04:56:06;9.48;;;4.90;;
65073;SDS011;52218;51.224;-2.328;2022-12-10T04:59:48;5.93;;;4.50;;
65073;SDS011;52218;51.224;-2.328;2022-12-10T05:03:30;6.20;;;4.53;;
65073;SDS011;52218;51.224;-2.328;2022-12-10T05:07:12;7.45;;;4.50;;
65073;SDS011;52218;51.224;-2.328;2022-12-10T05:10:54;6.63;;;4.43;;
65073;SDS011;52218;51.224;-2.328;2022-12-10T05:14:41;6.38;;;4.30;;
65073;SDS011;52218;51.224;-2.328;2022-12-10T05:18:23;8.32;;;4.57;;
65073;SDS011;52218;51.224;-2.328;2022-12-10T05:22:05;8.57;;;4.88;;
65073;SDS011;52218;51.224;-2.328;2022-12-10T05:29:55;8.50;;;4.60;;
65073;SDS011;52218;51.224;-2.328;2022-12-10T05:33:38;5.68;;;4.30;;
65073;SDS011;52218;51.224;-2.328;2022-12-10T05:37:20;5.65;;;4.43;;
65073;SDS011;52218;51.224;-2.328;2022-12-10T05:41:05;7.85;;;4.82;;
65073;SDS011;52218;51.224;-2.328;2022-12-10T05:44:50;6.40;;;4.10;;
65073;SDS011;52218;51.224;-2.328;2022-12-10T05:48:32;6.55;;;4.32;;
65073;SDS011;52218;51.224;-2.328;2022-12-10T05:52:15;6.85;;;4.45;;
65073;SDS011;52218;51.224;-2.328;2022-12-10T05:56:04;6.88;;;4.43;;
65073;SDS011;52218;51.224;-2.328;2022-12-10T05:59:47;7.93;;;4.72;;
65073;SDS011;52218;51.224;-2.328;2022-12-10T06:03:29;7.40;;;4.57;;
65073;SDS011;52218;51.224;-2.328;2022-12-10T06:07:11;6.55;;;4.30;;
65073;SDS011;52218;51.224;-2.328;2022-12-10T06:10:53;8.15;;;4.97;;
65073;SDS011;52218;51.224;-2.328;2022-12-10T06:14:37;7.03;;;4.63;;
65073;SDS011;52218;51.224;-2.328;2022-12-10T06:18:19;7.13;;;4.32;;
65073;SDS011;52218;51.224;-2.328;2022-12-10T06:22:02;7.50;;;4.40;;
65073;SDS011;52218;51.224;-2.328;2022-12-10T06:25:44;6.88;;;4.45;;
65073;SDS011;52218;51.224;-2.328;2022-12-10T06:29:26;5.95;;;4.65;;
65073;SDS011;52218;51.224;-2.328;2022-12-10T06:33:08;6.78;;;4.90;;
65073;SDS011;52218;51.224;-2.328;2022-12-10T06:36:50;9.05;;;4.50;;
65073;SDS011;52218;51.224;-2.328;2022-12-10T06:40:32;7.03;;;4.55;;
65073;SDS011;52218;51.224;-2.328;2022-12-10T06:44:14;6.72;;;4.55;;
65073;SDS011;52218;51.224;-2.328;2022-12-10T06:47:56;8.40;;;4.30;;
65073;SDS011;52218;51.224;-2.328;2022-12-10T06:51:38;7.15;;;4.88;;
65073;SDS011;52218;51.224;-2.328;2022-12-10T06:55:20;9.07;;;4.53;;
65073;SDS011;52218;51.224;-2.328;2022-12-10T06:59:05;5.53;;;4.13;;
65073;SDS011;52218;51.224;-2.328;2022-12-10T07:02:48;6.53;;;4.43;;
65073;SDS011;52218;51.224;-2.328;2022-12-10T07:06:30;6.93;;;4.60;;
65073;SDS011;52218;51.224;-2.328;2022-12-10T07:10:13;7.30;;;4.20;;
65073;SDS011;52218;51.224;-2.328;2022-12-10T07:13:56;7.10;;;4.35;;
65073;SDS011;52218;51.224;-2.328;2022-12-10T07:17:39;5.60;;;4.18;;
65073;SDS011;52218;51.224;-2.328;2022-12-10T07:21:26;8.07;;;4.38;;
65073;SDS011;52218;51.224;-2.328;2022-12-10T07:25:16;6.72;;;4.10;;
65073;SDS011;52218;51.224;-2.328;2022-12-10T07:28:58;5.32;;;3.90;;
65073;SDS011;52218;51.224;-2.328;2022-12-10T07:32:40;8.05;;;4.18;;
65073;SDS011;52218;51.224;-2.328;2022-12-10T07:36:23;5.28;;;3.92;;
65073;SDS011;52218;51.224;-2.328;2022-12-10T07:40:06;6.63;;;4.07;;
65073;SDS011;52218;51.224;-2.328;2022-12-10T07:43:49;6.30;;;3.92;;
65073;SDS011;52218;51.224;-2.328;2022-12-10T07:47:34;6.85;;;4.57;;
65073;SDS011;52218;51.224;-2.328;2022-12-10T07:51:18;6.23;;;4.13;;
65073;SDS011;52218;51.224;-2.328;2022-12-10T07:55:02;6.03;;;4.18;;
65073;SDS011;52218;51.224;-2.328;2022-12-10T07:58:44;5.75;;;4.15;;
65073;SDS011;52218;51.224;-2.328;2022-12-10T08:02:26;6.07;;;4.38;;
65073;SDS011;52218;51.224;-2.328;2022-12-10T08:06:10;7.55;;;3.95;;
65073;SDS011;52218;51.224;-2.328;2022-12-10T08:09:54;7.05;;;4.72;;
65073;SDS011;52218;51.224;-2.328;2022-12-10T08:13:37;5.97;;;4.57;;
65073;SDS011;52218;51.224;-2.328;2022-12-10T08:17:19;6.15;;;4.32;;
65073;SDS011;52218;51.224;-2.328;2022-12-10T08:21:05;7.10;;;4.45;;
65073;SDS011;52218;51.224;-2.328;2022-12-10T08:24:48;7.13;;;4.07;;
65073;SDS011;52218;51.224;-2.328;2022-12-10T08:28:31;6.32;;;4.55;;
65073;SDS011;52218;51.224;-2.328;2022-12-10T08:32:13;6.75;;;4.30;;
65073;SDS011;52218;51.224;-2.328;2022-12-10T08:35:58;7.22;;;4.13;;
65073;SDS011;52218;51.224;-2.328;2022-12-10T08:39:41;5.65;;;3.92;;
65073;SDS011;52218;51.224;-2.328;2022-12-10T08:43:23;5.75;;;3.80;;
65073;SDS011;52218;51.224;-2.328;2022-12-10T08:47:05;5.68;;;3.33;;
65073;SDS011;52218;51.224;-2.328;2022-12-10T08:50:48;8.20;;;4.20;;
65073;SDS011;52218;51.224;-2.328;2022-12-10T08:54:30;5.85;;;3.88;;
65073;SDS011;52218;51.224;-2.328;2022-12-10T08:58:12;4.97;;;3.88;;
65073;SDS011;52218;51.224;-2.328;2022-12-10T09:01:54;4.93;;;3.42;;
65073;SDS011;52218;51.224;-2.328;2022-12-10T09:05:37;6.10;;;3.60;;
65073;SDS011;52218;51.224;-2.328;2022-12-10T09:09:19;6.80;;;4.13;;
65073;SDS011;52218;51.224;-2.328;2022-12-10T09:13:01;5.00;;;3.67;;
65073;SDS011;52218;51.224;-2.328;2022-12-10T09:16:43;5.75;;;4.10;;
65073;SDS011;52218;51.224;-2.328;2022-12-10T09:20:26;5.35;;;3.80;;
65073;SDS011;52218;51.224;-2.328;2022-12-10T09:24:08;5.60;;;3.92;;
65073;SDS011;52218;51.224;-2.328;2022-12-10T09:27:50;7.65;;;3.88;;
65073;SDS011;52218;51.224;-2.328;2022-12-10T09:31:32;4.93;;;3.80;;
65073;SDS011;52218;51.224;-2.328;2022-12-10T09:35:14;5.28;;;3.20;;
65073;SDS011;52218;51.224;-2.328;2022-12-10T09:38:57;5.05;;;3.70;;
65073;SDS011;52218;51.224;-2.328;2022-12-10T09:42:44;5.35;;;3.50;;
65073;SDS011;52218;51.224;-2.328;2022-12-10T09:50:34;5.13;;;3.67;;
65073;SDS011;52218;51.224;-2.328;2022-12-10T09:54:44;5.68;;;3.63;;
65073;SDS011;52218;51.224;-2.328;2022-12-10T09:58:38;4.80;;;3.45;;
65073;SDS011;52218;51.224;-2.328;2022-12-10T10:02:25;6.07;;;3.40;;
65073;SDS011;52218;51.224;-2.328;2022-12-10T10:06:13;5.95;;;3.28;;
65073;SDS011;52218;51.224;-2.328;2022-12-10T10:09:57;4.45;;;3.10;;
65073;SDS011;52218;51.224;-2.328;2022-12-10T10:13:50;7.20;;;3.10;;
65073;SDS011;52218;51.224;-2.328;2022-12-10T10:17:36;4.47;;;2.90;;
65073;SDS011;52218;51.224;-2.328;2022-12-10T10:25:06;4.07;;;1.87;;
65073;SDS011;52218;51.224;-2.328;2022-12-10T10:28:59;2.70;;;1.85;;
65073;SDS011;52218;51.224;-2.328;2022-12-10T10:36:34;1.77;;;1.50;;
65073;SDS011;52218;51.224;-2.328;2022-12-10T10:40:29;1.90;;;1.40;;
65073;SDS011;52218;51.224;-2.328;2022-12-10T10:44:42;1.92;;;1.30;;
65073;SDS011;52218;51.224;-2.328;2022-12-10T10:48:24;2.17;;;1.00;;
65073;SDS011;52218;51.224;-2.328;2022-12-10T10:52:14;2.10;;;1.60;;
65073;SDS011;52218;51.224;-2.328;2022-12-10T10:55:59;2.15;;;1.70;;
65073;SDS011;52218;51.224;-2.328;2022-12-10T10:59:54;2.13;;;1.33;;
65073;SDS011;52218;51.224;-2.328;2022-12-10T11:03:50;2.72;;;1.80;;
65073;SDS011;52218;51.224;-2.328;2022-12-10T11:07:37;2.40;;;1.70;;
65073;SDS011;52218;51.224;-2.328;2022-12-10T11:11:39;2.50;;;1.80;;
65073;SDS011;52218;51.224;-2.328;2022-12-10T11:15:29;3.13;;;2.40;;
65073;SDS011;52218;51.224;-2.328;2022-12-10T11:19:19;3.42;;;1.92;;
65073;SDS011;52218;51.224;-2.328;2022-12-10T11:23:08;2.55;;;1.50;;
65073;SDS011;52218;51.224;-2.328;2022-12-10T11:27:05;2.13;;;1.70;;
65073;SDS011;52218;51.224;-2.328;2022-12-10T11:31:05;2.47;;;1.70;;
65073;SDS011;52218;51.224;-2.328;2022-12-10T11:51:38;1.58;;;1.08;;
65073;SDS011;52218;51.224;-2.328;2022-12-10T12:08:12;1.65;;;1.17;;
65073;SDS011;52218;51.224;-2.328;2022-12-10T12:16:11;2.10;;;1.07;;
65073;SDS011;52218;51.224;-2.328;2022-12-10T12:19:57;1.52;;;0.90;;
65073;SDS011;52218;51.224;-2.328;2022-12-10T12:24:08;1.15;;;0.70;;
65073;SDS011;52218;51.224;-2.328;2022-12-10T12:28:09;0.70;;;0.50;;
65073;SDS011;52218;51.224;-2.328;2022-12-10T12:31:59;1.10;;;0.68;;
65073;SDS011;52218;51.224;-2.328;2022-12-10T12:35:52;1.13;;;0.60;;
65073;SDS011;52218;51.224;-2.328;2022-12-10T12:39:53;1.00;;;0.73;;
65073;SDS011;52218;51.224;-2.328;2022-12-10T12:44:27;0.88;;;0.60;;
65073;SDS011;52218;51.224;-2.328;2022-12-10T12:47:56;0.80;;;0.50;;
65073;SDS011;52218;51.224;-2.328;2022-12-10T12:59:45;1.48;;;0.90;;
65073;SDS011;52218;51.224;-2.328;2022-12-10T13:03:39;1.80;;;0.90;;
65073;SDS011;52218;51.224;-2.328;2022-12-10T13:15:02;3.25;;;0.80;;
65073;SDS011;52218;51.224;-2.328;2022-12-10T13:27:02;1.20;;;0.80;;
65073;SDS011;52218;51.224;-2.328;2022-12-10T13:30:45;1.25;;;0.70;;
65073;SDS011;52218;51.224;-2.328;2022-12-10T13:34:47;1.55;;;0.82;;
65073;SDS011;52218;51.224;-2.328;2022-12-10T13:50:41;1.20;;;0.60;;
65073;SDS011;52218;51.224;-2.328;2022-12-10T13:54:43;2.90;;;0.73;;
65073;SDS011;52218;51.224;-2.328;2022-12-10T14:06:44;1.10;;;0.70;;
65073;SDS011;52218;51.224;-2.328;2022-12-10T14:10:29;1.30;;;0.70;;
65073;SDS011;52218;51.224;-2.328;2022-12-10T14:14:16;1.20;;;0.90;;
65073;SDS011;52218;51.224;-2.328;2022-12-10T14:18:12;1.42;;;1.05;;
65073;SDS011;52218;51.224;-2.328;2022-12-10T14:21:56;1.70;;;0.95;;
65073;SDS011;52218;51.224;-2.328;2022-12-10T14:25:42;1.65;;;1.13;;
65073;SDS011;52218;51.224;-2.328;2022-12-10T14:29:26;2.10;;;1.50;;
65073;SDS011;52218;51.224;-2.328;2022-12-10T14:33:10;3.05;;;1.58;;
65073;SDS011;52218;51.224;-2.328;2022-12-10T14:36:57;2.05;;;1.20;;
65073;SDS011;52218;51.224;-2.328;2022-12-10T14:40:43;1.88;;;1.60;;
65073;SDS011;52218;51.224;-2.328;2022-12-10T14:44:26;2.58;;;1.52;;
65073;SDS011;52218;51.224;-2.328;2022-12-10T14:48:11;4.43;;;2.60;;
65073;SDS011;52218;51.224;-2.328;2022-12-10T14:51:55;4.35;;;2.17;;
65073;SDS011;52218;51.224;-2.328;2022-12-10T14:55:37;6.10;;;3.67;;
65073;SDS011;52218;51.224;-2.328;2022-12-10T14:59:24;4.10;;;2.40;;
65073;SDS011;52218;51.224;-2.328;2022-12-10T15:03:23;4.95;;;2.50;;
65073;SDS011;52218;51.224;-2.328;2022-12-10T15:07:13;6.50;;;3.58;;
65073;SDS011;52218;51.224;-2.328;2022-12-10T15:10:58;6.43;;;3.85;;
65073;SDS011;52218;51.224;-2.328;2022-12-10T15:14:42;6.20;;;3.50;;
65073;SDS011;52218;51.224;-2.328;2022-12-10T15:18:30;5.65;;;3.13;;
65073;SDS011;52218;51.224;-2.328;2022-12-10T15:22:19;3.60;;;2.30;;
65073;SDS011;52218;51.224;-2.328;2022-12-10T15:29:55;4.85;;;3.33;;
65073;SDS011;52218;51.224;-2.328;2022-12-10T15:33:45;3.05;;;2.05;;
65073;SDS011;52218;51.224;-2.328;2022-12-10T15:37:33;4.75;;;2.97;;
65073;SDS011;52218;51.224;-2.328;2022-12-10T15:41:37;4.40;;;2.67;;
65073;SDS011;52218;51.224;-2.328;2022-12-10T15:45:26;2.83;;;2.05;;
65073;SDS011;52218;51.224;-2.328;2022-12-10T15:49:18;5.05;;;2.63;;
65073;SDS011;52218;51.224;-2.328;2022-12-10T15:53:00;4.25;;;2.90;;
65073;SDS011;52218;51.224;-2.328;2022-12-10T15:56:42;4.55;;;2.97;;
65073;SDS011;52218;51.224;-2.328;2022-12-10T16:00:25;4.07;;;3.10;;
65073;SDS011;52218;51.224;-2.328;2022-12-10T16:04:09;4.18;;;2.85;;
65073;SDS011;52218;51.224;-2.328;2022-12-10T16:07:52;4.03;;;2.80;;
65073;SDS011;52218;51.224;-2.328;2022-12-10T16:11:35;3.92;;;2.58;;
65073;SDS011;52218;51.224;-2.328;2022-12-10T16:15:21;6.30;;;3.83;;
65073;SDS011;52218;51.224;-2.328;2022-12-10T16:19:12;6.03;;;3.85;;
65073;SDS011;52218;51.224;-2.328;2022-12-10T16:22:55;6.40;;;4.07;;
65073;SDS011;52218;51.224;-2.328;2022-12-10T16:26:38;9.38;;;4.22;;
65073;SDS011;52218;51.224;-2.328;2022-12-10T16:30:25;8.25;;;5.65;;
65073;SDS011;52218;51.224;-2.328;2022-12-10T16:34:19;9.10;;;5.40;;
65073;SDS011;52218;51.224;-2.328;2022-12-10T16:38:01;7.18;;;5.18;;
65073;SDS011;52218;51.224;-2.328;2022-12-10T16:41:53;7.97;;;5.57;;
65073;SDS011;52218;51.224;-2.328;2022-12-10T16:45:36;9.63;;;7.20;;
65073;SDS011;52218;51.224;-2.328;2022-12-10T16:49:20;9.45;;;6.63;;
65073;SDS011;52218;51.224;-2.328;2022-12-10T16:53:03;9.13;;;6.45;;
65073;SDS011;52218;51.224;-2.328;2022-12-10T16:57:04;9.57;;;5.90;;
65073;SDS011;52218;51.224;-2.328;2022-12-10T17:00:56;8.38;;;5.80;;
65073;SDS011;52218;51.224;-2.328;2022-12-10T17:04:38;10.63;;;7.05;;
65073;SDS011;52218;51.224;-2.328;2022-12-10T17:08:20;10.32;;;7.75;;
65073;SDS011;52218;51.224;-2.328;2022-12-10T17:12:04;8.85;;;6.90;;
65073;SDS011;52218;51.224;-2.328;2022-12-10T17:15:46;9.73;;;6.53;;
65073;SDS011;52218;51.224;-2.328;2022-12-10T17:19:33;9.10;;;6.18;;
65073;SDS011;52218;51.224;-2.328;2022-12-10T17:23:16;9.15;;;6.10;;
65073;SDS011;52218;51.224;-2.328;2022-12-10T17:27:02;9.52;;;6.07;;
65073;SDS011;52218;51.224;-2.328;2022-12-10T17:30:51;7.18;;;5.45;;
65073;SDS011;52218;51.224;-2.328;2022-12-10T17:34:33;6.85;;;4.82;;
65073;SDS011;52218;51.224;-2.328;2022-12-10T17:38:19;8.35;;;5.05;;
65073;SDS011;52218;51.224;-2.328;2022-12-10T17:42:03;5.72;;;3.72;;
65073;SDS011;52218;51.224;-2.328;2022-12-10T17:45:45;5.00;;;3.70;;
65073;SDS011;52218;51.224;-2.328;2022-12-10T17:49:28;5.20;;;3.33;;
65073;SDS011;52218;51.224;-2.328;2022-12-10T17:53:12;4.97;;;3.15;;
65073;SDS011;52218;51.224;-2.328;2022-12-10T17:56:57;5.07;;;3.75;;
65073;SDS011;52218;51.224;-2.328;2022-12-10T18:00:41;9.57;;;6.43;;
65073;SDS011;52218;51.224;-2.328;2022-12-10T18:04:25;6.93;;;5.40;;
65073;SDS011;52218;51.224;-2.328;2022-12-10T18:08:07;7.03;;;5.50;;
65073;SDS011;52218;51.224;-2.328;2022-12-10T18:11:50;7.43;;;5.47;;
65073;SDS011;52218;51.224;-2.328;2022-12-10T18:15:34;10.93;;;6.53;;
65073;SDS011;52218;51.224;-2.328;2022-12-10T18:19:17;9.30;;;6.82;;
65073;SDS011;52218;51.224;-2.328;2022-12-10T18:22:59;20.60;;;13.60;;
65073;SDS011;52218;51.224;-2.328;2022-12-10T18:26:42;17.15;;;12.18;;
65073;SDS011;52218;51.224;-2.328;2022-12-10T18:30:25;17.42;;;12.27;;
65073;SDS011;52218;51.224;-2.328;2022-12-10T18:34:08;15.80;;;11.18;;
65073;SDS011;52218;51.224;-2.328;2022-12-10T18:37:52;9.45;;;7.40;;
65073;SDS011;52218;51.224;-2.328;2022-12-10T18:41:34;15.70;;;10.10;;
65073;SDS011;52218;51.224;-2.328;2022-12-10T18:45:17;16.25;;;10.60;;
65073;SDS011;52218;51.224;-2.328;2022-12-10T18:48:59;15.77;;;11.20;;
65073;SDS011;52218;51.224;-2.328;2022-12-10T18:52:41;14.32;;;9.73;;
65073;SDS011;52218;51.224;-2.328;2022-12-10T18:56:24;13.93;;;8.77;;
65073;SDS011;52218;51.224;-2.328;2022-12-10T19:00:13;10.02;;;7.38;;
65073;SDS011;52218;51.224;-2.328;2022-12-10T19:03:58;11.68;;;8.82;;
65073;SDS011;52218;51.224;-2.328;2022-12-10T19:07:40;10.07;;;7.13;;
65073;SDS011;52218;51.224;-2.328;2022-12-10T19:11:22;11.05;;;7.57;;
65073;SDS011;52218;51.224;-2.328;2022-12-10T19:15:05;9.25;;;7.03;;
65073;SDS011;52218;51.224;-2.328;2022-12-10T19:18:49;7.63;;;5.75;;
65073;SDS011;52218;51.224;-2.328;2022-12-10T19:22:31;7.18;;;5.38;;
65073;SDS011;52218;51.224;-2.328;2022-12-10T19:26:24;8.38;;;5.35;;
65073;SDS011;52218;51.224;-2.328;2022-12-10T19:30:19;8.65;;;4.95;;
65073;SDS011;52218;51.224;-2.328;2022-12-10T19:34:03;6.80;;;5.25;;
65073;SDS011;52218;51.224;-2.328;2022-12-10T19:37:46;7.40;;;5.28;;
65073;SDS011;52218;51.224;-2.328;2022-12-10T19:41:34;6.43;;;4.88;;
65073;SDS011;52218;51.224;-2.328;2022-12-10T19:45:17;7.95;;;5.57;;
65073;SDS011;52218;51.224;-2.328;2022-12-10T19:49:01;8.98;;;5.78;;
65073;SDS011;52218;51.224;-2.328;2022-12-10T19:52:44;8.77;;;6.50;;
65073;SDS011;52218;51.224;-2.328;2022-12-10T19:56:28;8.77;;;6.10;;
65073;SDS011;52218;51.224;-2.328;2022-12-10T20:00:17;9.13;;;6.45;;
65073;SDS011;52218;51.224;-2.328;2022-12-10T20:04:07;9.57;;;6.20;;
65073;SDS011;52218;51.224;-2.328;2022-12-10T20:07:49;8.43;;;6.15;;
65073;SDS011;52218;51.224;-2.328;2022-12-10T20:11:31;8.40;;;6.13;;
65073;SDS011;52218;51.224;-2.328;2022-12-10T20:15:14;9.18;;;6.70;;
65073;SDS011;52218;51.224;-2.328;2022-12-10T20:18:56;7.93;;;5.70;;
65073;SDS011;52218;51.224;-2.328;2022-12-10T20:22:38;8.32;;;5.55;;
65073;SDS011;52218;51.224;-2.328;2022-12-10T20:26:31;6.93;;;5.28;;
65073;SDS011;52218;51.224;-2.328;2022-12-10T20:30:22;7.20;;;5.50;;
65073;SDS011;52218;51.224;-2.328;2022-12-10T20:34:08;6.47;;;5.40;;
65073;SDS011;52218;51.224;-2.328;2022-12-10T20:37:50;7.15;;;5.65;;
65073;SDS011;52218;51.224;-2.328;2022-12-10T20:41:32;7.22;;;5.82;;
65073;SDS011;52218;51.224;-2.328;2022-12-10T20:45:15;8.48;;;5.95;;
65073;SDS011;52218;51.224;-2.328;2022-12-10T20:48:58;7.97;;;5.50;;
65073;SDS011;52218;51.224;-2.328;2022-12-10T20:52:40;8.18;;;5.68;;
65073;SDS011;52218;51.224;-2.328;2022-12-10T20:56:23;6.35;;;4.95;;
65073;SDS011;52218;51.224;-2.328;2022-12-10T21:00:07;7.03;;;5.13;;
65073;SDS011;52218;51.224;-2.328;2022-12-10T21:03:56;7.03;;;5.22;;
65073;SDS011;52218;51.224;-2.328;2022-12-10T21:07:39;6.70;;;4.90;;
65073;SDS011;52218;51.224;-2.328;2022-12-10T21:11:22;7.10;;;4.93;;
65073;SDS011;52218;51.224;-2.328;2022-12-10T21:15:04;5.55;;;4.78;;
65073;SDS011;52218;51.224;-2.328;2022-12-10T21:19:00;6.18;;;4.47;;
65073;SDS011;52218;51.224;-2.328;2022-12-10T21:22:42;6.60;;;5.00;;
65073;SDS011;52218;51.224;-2.328;2022-12-10T21:26:25;6.55;;;5.25;;
65073;SDS011;52218;51.224;-2.328;2022-12-10T21:30:16;7.53;;;5.03;;
65073;SDS011;52218;51.224;-2.328;2022-12-10T21:33:59;7.72;;;5.50;;
65073;SDS011;52218;51.224;-2.328;2022-12-10T21:37:42;7.45;;;5.13;;
65073;SDS011;52218;51.224;-2.328;2022-12-10T21:41:25;6.82;;;5.30;;
65073;SDS011;52218;51.224;-2.328;2022-12-10T21:45:29;9.38;;;6.50;;
65073;SDS011;52218;51.224;-2.328;2022-12-10T21:49:11;9.43;;;6.05;;
65073;SDS011;52218;51.224;-2.328;2022-12-10T21:52:53;10.93;;;6.40;;
65073;SDS011;52218;51.224;-2.328;2022-12-10T21:56:36;10.52;;;6.68;;
65073;SDS011;52218;51.224;-2.328;2022-12-10T22:00:18;9.50;;;6.35;;
65073;SDS011;52218;51.224;-2.328;2022-12-10T22:04:00;7.45;;;5.88;;
65073;SDS011;52218;51.224;-2.328;2022-12-10T22:07:42;9.02;;;5.88;;
65073;SDS011;52218;51.224;-2.328;2022-12-10T22:11:24;10.05;;;6.30;;
65073;SDS011;52218;51.224;-2.328;2022-12-10T22:15:07;9.48;;;5.90;;
65073;SDS011;52218;51.224;-2.328;2022-12-10T22:18:50;8.60;;;5.85;;
65073;SDS011;52218;51.224;-2.328;2022-12-10T22:22:32;10.05;;;6.35;;
65073;SDS011;52218;51.224;-2.328;2022-12-10T22:26:15;10.02;;;5.40;;
65073;SDS011;52218;51.224;-2.328;2022-12-10T22:29:58;8.38;;;5.38;;
65073;SDS011;52218;51.224;-2.328;2022-12-10T22:33:40;9.07;;;5.55;;
65073;SDS011;52218;51.224;-2.328;2022-12-10T22:37:22;7.32;;;5.00;;
65073;SDS011;52218;51.224;-2.328;2022-12-10T22:41:05;6.25;;;3.78;;
65073;SDS011;52218;51.224;-2.328;2022-12-10T22:44:47;6.03;;;4.22;;
65073;SDS011;52218;51.224;-2.328;2022-12-10T22:48:29;8.10;;;4.25;;
65073;SDS011;52218;51.224;-2.328;2022-12-10T22:52:11;6.20;;;4.40;;
65073;SDS011;52218;51.224;-2.328;2022-12-10T22:55:57;9.40;;;4.90;;
65073;SDS011;52218;51.224;-2.328;2022-12-10T22:59:40;9.55;;;5.00;;
65073;SDS011;52218;51.224;-2.328;2022-12-10T23:03:24;11.70;;;5.15;;
65073;SDS011;52218;51.224;-2.328;2022-12-10T23:07:07;10.85;;;5.20;;
65073;SDS011;52218;51.224;-2.328;2022-12-10T23:10:49;9.80;;;5.57;;
65073;SDS011;52218;51.224;-2.328;2022-12-10T23:14:32;11.05;;;5.25;;
65073;SDS011;52218;51.224;-2.328;2022-12-10T23:18:14;11.38;;;5.60;;
65073;SDS011;52218;51.224;-2.328;2022-12-10T23:21:57;11.10;;;5.78;;
65073;SDS011;52218;51.224;-2.328;2022-12-10T23:25:39;10.75;;;6.25;;
65073;SDS011;52218;51.224;-2.328;2022-12-10T23:29:23;11.55;;;5.85;;
65073;SDS011;52218;51.224;-2.328;2022-12-10T23:33:05;8.98;;;5.10;;
65073;SDS011;52218;51.224;-2.328;2022-12-10T23:36:50;7.57;;;4.97;;
65073;SDS011;52218;51.224;-2.328;2022-12-10T23:40:32;8.60;;;5.55;;
65073;SDS011;52218;51.224;-2.328;2022-12-10T23:44:14;10.55;;;5.78;;
65073;SDS011;52218;51.224;-2.328;2022-12-10T23:47:56;10.05;;;5.60;;
65073;SDS011;52218;51.224;-2.328;2022-12-10T23:51:39;9.80;;;5.28;;
65073;SDS011;52218;51.224;-2.328;2022-12-10T23:55:21;7.55;;;4.95;;
65073;SDS011;52218;51.224;-2.328;2022-12-10T23:59:03;8.00;;;4.47;;
